createdAt,value
2022-11-20T00:01:17.295Z,13.99
2022-11-20T00:03:44.122Z,14.04
2022-11-20T00:06:13.383Z,14.04
2022-11-20T00:08:40.740Z,13.99
2022-11-20T00:11:16.103Z,13.99
2022-11-20T00:13:48.162Z,13.99
2022-11-20T00:16:18.269Z,14.04
2022-11-20T00:18:45.805Z,13.88
2022-11-20T00:21:15.363Z,13.96
2022-11-20T00:23:42.844Z,13.93
2022-11-20T00:26:13.491Z,13.88
2022-11-20T00:28:40.963Z,13.88
2022-11-20T00:31:10.609Z,13.93
2022-11-20T00:33:37.749Z,13.97
2022-11-20T00:36:10.499Z,13.92
2022-11-20T00:38:37.636Z,13.90
2022-11-20T00:41:09.528Z,13.83
2022-11-20T00:43:38.209Z,13.93
2022-11-20T00:46:10.566Z,13.92
2022-11-20T00:48:37.605Z,13.96
2022-11-20T00:51:04.379Z,14.00
2022-11-20T00:53:31.398Z,14.03
2022-11-20T00:56:04.405Z,13.87
2022-11-20T00:58:34.687Z,13.88
2022-11-20T01:01:07.754Z,13.96
2022-11-20T01:03:36.658Z,13.96
2022-11-20T01:06:05.854Z,14.01
2022-11-20T01:08:34.173Z,14.03
2022-11-20T01:11:06.826Z,13.98
2022-11-20T01:13:40.348Z,13.91
2022-11-20T01:16:17.432Z,13.96
2022-11-20T01:18:46.895Z,13.90
2022-11-20T01:21:18.231Z,13.90
2022-11-20T01:23:45.613Z,13.72
2022-11-20T01:26:15.262Z,13.60
2022-11-20T01:28:42.704Z,13.55
2022-11-20T01:31:37.214Z,13.70
2022-11-20T01:34:10.563Z,13.64
2022-11-20T01:36:38.841Z,13.79
2022-11-20T01:39:08.350Z,13.82
2022-11-20T01:41:54.524Z,13.79
2022-11-20T01:44:42.966Z,13.89
2022-11-20T01:47:15.537Z,13.91
2022-11-20T01:49:57.877Z,13.80
2022-11-20T01:52:31.701Z,13.86
2022-11-20T01:55:16.122Z,13.75
2022-11-20T01:57:44.811Z,13.74
2022-11-20T02:00:14.644Z,13.76
2022-11-20T02:02:46.991Z,13.74
2022-11-20T02:05:36.578Z,13.77
2022-11-20T02:08:05.475Z,13.79
2022-11-20T02:10:33.206Z,13.80
2022-11-20T02:13:19.155Z,13.82
2022-11-20T02:15:46.449Z,13.65
2022-11-20T02:18:16.771Z,13.62
2022-11-20T02:20:46.234Z,13.63
2022-11-20T02:23:34.625Z,13.65
2022-11-20T02:26:05.201Z,13.64
2022-11-20T02:28:32.136Z,13.52
2022-11-20T02:30:58.845Z,13.49
2022-11-20T02:33:25.549Z,13.62
2022-11-20T02:36:00.015Z,13.66
2022-11-20T02:38:27.046Z,13.58
2022-11-20T02:40:55.744Z,13.60
2022-11-20T02:43:23.823Z,13.59
2022-11-20T02:45:50.904Z,13.51
2022-11-20T02:48:17.725Z,13.52
2022-11-20T02:50:44.536Z,13.51
2022-11-20T02:53:11.234Z,13.52
2022-11-20T02:55:38.020Z,13.25
2022-11-20T02:58:04.662Z,13.52
2022-11-20T03:00:31.766Z,13.47
2022-11-20T03:02:58.475Z,13.51
2022-11-20T03:05:25.104Z,13.48
2022-11-20T03:07:56.122Z,13.51
2022-11-20T03:10:22.782Z,13.56
2022-11-20T03:12:54.318Z,13.47
2022-11-20T03:15:21.025Z,13.50
2022-11-20T03:17:47.811Z,13.40
2022-11-20T03:20:14.513Z,13.36
2022-11-20T03:22:41.309Z,13.40
2022-11-20T03:25:08.354Z,13.35
2022-11-20T03:27:35.695Z,13.20
2022-11-20T03:30:02.548Z,13.22
2022-11-20T03:32:29.191Z,13.33
2022-11-20T03:34:55.792Z,13.29
2022-11-20T03:37:22.500Z,13.26
2022-11-20T03:39:49.137Z,13.12
2022-11-20T03:42:34.216Z,13.05
2022-11-20T03:45:00.850Z,13.00
2022-11-20T03:47:27.492Z,12.98
2022-11-20T03:49:54.747Z,12.94
2022-11-20T03:52:21.477Z,12.82
2022-11-20T03:54:48.366Z,12.69
2022-11-20T03:57:15.031Z,12.85
2022-11-20T03:59:41.670Z,12.84
2022-11-20T04:02:08.421Z,12.78
2022-11-20T04:04:35.092Z,12.66
2022-11-20T04:07:01.988Z,12.80
2022-11-20T04:09:28.780Z,12.78
2022-11-20T04:11:55.642Z,12.66
2022-11-20T04:14:22.295Z,12.75
2022-11-20T04:16:49.031Z,12.75
2022-11-20T04:19:17.421Z,12.91
2022-11-20T04:21:45.276Z,13.04
2022-11-20T04:24:12.722Z,13.02
2022-11-20T04:26:40.471Z,13.10
2022-11-20T04:29:10.687Z,13.22
2022-11-20T04:31:37.370Z,13.14
2022-11-20T04:34:07.300Z,13.13
2022-11-20T04:36:34.427Z,13.09
2022-11-20T04:39:04.241Z,13.20
2022-11-20T04:41:36.916Z,13.13
2022-11-20T04:44:06.793Z,13.18
2022-11-20T04:46:44.522Z,13.16
2022-11-20T04:49:12.521Z,13.18
2022-11-20T04:51:39.272Z,13.16
2022-11-20T04:54:05.926Z,13.16
2022-11-20T04:56:32.609Z,13.12
2022-11-20T04:59:03.250Z,13.19
2022-11-20T05:01:30.601Z,13.28
2022-11-20T05:03:57.346Z,13.27
2022-11-20T05:06:24.322Z,13.25
2022-11-20T05:08:51.369Z,13.28
2022-11-20T05:11:21.086Z,13.20
2022-11-20T05:13:48.486Z,13.23
2022-11-20T05:16:26.381Z,13.25
2022-11-20T05:18:55.328Z,13.22
2022-11-20T05:21:22.721Z,13.30
2022-11-20T05:23:49.829Z,13.33
2022-11-20T05:26:25.425Z,13.37
2022-11-20T05:28:52.629Z,13.39
2022-11-20T05:31:26.644Z,13.34
2022-11-20T05:33:55.751Z,13.12
2022-11-20T05:36:22.444Z,13.33
2022-11-20T05:38:51.069Z,13.36
2022-11-20T05:41:20.857Z,13.38
2022-11-20T05:43:49.001Z,13.36
2022-11-20T05:46:18.960Z,13.39
2022-11-20T05:48:47.654Z,13.39
2022-11-20T05:51:17.738Z,13.37
2022-11-20T05:53:48.252Z,13.33
2022-11-20T05:56:21.248Z,13.27
2022-11-20T05:58:48.186Z,13.44
2022-11-20T06:01:21.299Z,13.41
2022-11-20T06:03:48.867Z,13.43
2022-11-20T06:06:16.987Z,13.49
2022-11-20T06:08:44.112Z,13.55
2022-11-20T06:11:13.685Z,13.44
2022-11-20T06:13:42.305Z,13.45
2022-11-20T06:16:10.627Z,13.53
2022-11-20T06:18:37.620Z,13.50
2022-11-20T06:21:07.629Z,13.35
2022-11-20T06:23:35.739Z,13.50
2022-11-20T06:26:04.701Z,13.48
2022-11-20T06:28:31.552Z,13.49
2022-11-20T06:30:58.835Z,13.39
2022-11-20T06:33:25.830Z,13.56
2022-11-20T06:35:58.453Z,13.48
2022-11-20T06:38:27.838Z,13.56
2022-11-20T06:40:55.379Z,13.51
2022-11-20T06:43:22.656Z,13.59
2022-11-20T06:45:57.440Z,13.61
2022-11-20T06:48:24.945Z,13.58
2022-11-20T06:50:51.569Z,13.53
2022-11-20T07:02:33.391Z,13.67
2022-11-20T07:05:00.298Z,13.70
2022-11-20T07:07:27.013Z,13.81
2022-11-20T07:09:53.667Z,13.67
2022-11-20T07:12:20.378Z,13.71
2022-11-20T07:14:47.197Z,13.74
2022-11-20T07:17:14.073Z,13.70
2022-11-20T07:19:40.711Z,13.72
2022-11-20T07:22:07.374Z,13.68
2022-11-20T07:24:34.053Z,13.73
2022-11-20T07:27:00.713Z,13.83
2022-11-20T07:55:50.203Z,14.06
2022-11-20T07:58:35.581Z,14.07
2022-11-20T08:01:21.552Z,14.06
2022-11-20T08:03:48.317Z,14.18
2022-11-20T08:06:15.821Z,13.99
2022-11-20T08:08:43.183Z,14.11
2022-11-20T08:11:28.920Z,14.27
2022-11-20T08:14:14.313Z,14.06
2022-11-20T08:16:41.748Z,14.37
2022-11-20T08:19:08.592Z,14.40
2022-11-20T08:21:38.326Z,14.52
2022-11-20T08:24:05.999Z,14.56
2022-11-20T08:26:32.688Z,14.46
2022-11-20T08:29:06.663Z,14.61
2022-11-20T08:31:33.864Z,14.60
2022-11-20T08:34:00.519Z,14.67
2022-11-20T08:36:27.189Z,14.22
2022-11-20T08:38:56.140Z,14.25
2022-11-20T08:41:29.530Z,14.35
2022-11-20T08:44:08.029Z,14.42
2022-11-20T08:46:39.649Z,14.39
2022-11-20T08:49:07.680Z,14.39
2022-11-20T08:51:34.403Z,14.54
2022-11-20T08:54:01.480Z,14.67
2022-11-20T08:56:29.052Z,14.70
2022-11-20T08:59:20.162Z,14.69
2022-11-20T09:01:42.611Z,14.82
2022-11-20T09:04:09.383Z,14.75
2022-11-20T09:06:36.094Z,14.69
2022-11-20T09:09:06.656Z,14.62
2022-11-20T09:11:33.884Z,14.71
2022-11-20T09:14:01.234Z,14.57
2022-11-20T09:16:28.255Z,14.58
2022-11-20T09:19:20.200Z,14.67
2022-11-20T09:21:48.856Z,14.56
2022-11-20T09:24:15.544Z,14.36
2022-11-20T09:26:42.163Z,14.47
2022-11-20T09:29:08.840Z,14.36
2022-11-20T09:31:35.553Z,14.24
2022-11-20T09:34:02.162Z,14.33
2022-11-20T09:36:28.888Z,14.47
2022-11-20T09:38:57.373Z,14.56
2022-11-20T09:41:51.279Z,14.79
2022-11-20T09:44:35.991Z,15.11
2022-11-20T09:47:18.062Z,15.02
2022-11-20T09:50:25.961Z,14.96
2022-11-20T09:53:06.087Z,14.99
2022-11-20T09:55:33.180Z,15.04
2022-11-20T09:58:00.923Z,15.46
2022-11-20T10:00:29.351Z,15.53
2022-11-20T10:03:18.638Z,16.36
2022-11-20T10:05:55.972Z,16.07
2022-11-20T10:08:37.332Z,16.20
2022-11-20T10:11:32.386Z,15.97
2022-11-20T10:14:17.671Z,15.54
2022-11-20T10:17:12.105Z,15.52
2022-11-20T10:20:01.635Z,15.59
2022-11-20T10:22:43.575Z,15.72
2022-11-20T10:25:17.191Z,15.44
2022-11-20T10:28:14.709Z,15.52
2022-11-20T10:30:47.326Z,15.37
2022-11-20T10:33:22.295Z,15.41
2022-11-20T10:35:54.112Z,15.37
2022-11-20T10:38:24.656Z,15.48
2022-11-20T10:41:21.410Z,15.65
2022-11-20T10:43:51.777Z,15.52
2022-11-20T10:46:23.133Z,16.46
2022-11-20T10:48:50.966Z,16.30
2022-11-20T10:51:43.725Z,16.66
2022-11-20T10:54:30.302Z,16.69
2022-11-20T10:57:21.788Z,17.02
2022-11-20T11:00:03.674Z,16.91
2022-11-20T11:02:48.380Z,16.82
2022-11-20T11:05:37.388Z,16.96
2022-11-20T11:08:11.441Z,17.42
2022-11-20T11:11:00.036Z,18.57
2022-11-20T11:13:29.540Z,18.39
2022-11-20T11:15:56.840Z,17.97
2022-11-20T11:18:32.991Z,17.14
2022-11-20T11:21:03.832Z,16.91
2022-11-20T11:23:30.792Z,17.32
2022-11-20T11:26:00.142Z,17.30
2022-11-20T11:28:28.902Z,17.74
2022-11-20T11:30:56.857Z,17.25
2022-11-20T11:33:29.721Z,17.00
2022-11-20T11:36:01.755Z,16.36
2022-11-20T11:38:45.020Z,16.67
2022-11-20T11:41:22.057Z,16.81
2022-11-20T11:44:14.070Z,16.20
2022-11-20T11:46:50.453Z,16.17
2022-11-20T11:49:21.268Z,16.00
2022-11-20T11:51:48.286Z,16.22
2022-11-20T11:54:29.951Z,16.14
2022-11-20T11:57:00.143Z,16.22
2022-11-20T11:59:55.966Z,15.82
2022-11-20T12:02:31.360Z,16.33
2022-11-20T12:05:24.317Z,16.17
2022-11-20T12:07:59.755Z,16.10
2022-11-20T12:10:36.009Z,16.22
2022-11-20T12:13:13.804Z,16.12
2022-11-20T12:15:45.627Z,16.13
2022-11-20T12:18:18.703Z,16.14
2022-11-20T12:21:22.793Z,16.06
2022-11-20T12:24:08.208Z,15.85
2022-11-20T12:26:55.209Z,15.77
2022-11-20T12:29:59.533Z,15.89
2022-11-20T12:32:40.060Z,15.79
2022-11-20T12:35:45.350Z,15.68
2022-11-20T12:38:33.405Z,15.98
2022-11-20T12:41:02.940Z,15.72
2022-11-20T12:43:54.031Z,15.67
2022-11-20T12:46:23.431Z,15.49
2022-11-20T12:48:58.983Z,15.27
2022-11-20T12:52:04.054Z,15.28
2022-11-20T12:54:30.707Z,15.11
2022-11-20T12:57:16.032Z,15.16
2022-11-20T12:59:54.885Z,15.10
2022-11-20T13:02:38.871Z,14.99
2022-11-20T13:05:50.223Z,14.87
2022-11-20T13:08:30.534Z,14.97
2022-11-20T13:11:17.940Z,14.71
2022-11-20T13:14:24.665Z,14.87
2022-11-20T13:17:10.104Z,14.80
2022-11-20T13:19:37.187Z,14.66
2022-11-20T13:22:04.187Z,14.60
2022-11-20T13:24:32.986Z,14.56
2022-11-20T13:27:03.873Z,14.62
2022-11-20T13:29:31.056Z,14.66
2022-11-20T13:32:08.164Z,14.65
2022-11-20T13:34:37.953Z,14.48
2022-11-20T13:37:07.779Z,14.46
2022-11-20T13:39:36.265Z,14.43
2022-11-20T13:42:12.363Z,14.42
2022-11-20T13:44:43.133Z,14.31
2022-11-20T13:47:25.251Z,14.04
2022-11-20T13:49:55.390Z,14.29
2022-11-20T13:52:47.715Z,14.28
2022-11-20T13:55:44.192Z,14.18
2022-11-20T13:58:52.519Z,14.11
2022-11-20T14:01:32.488Z,14.13
2022-11-20T14:04:06.164Z,14.17
2022-11-20T14:06:39.722Z,14.08
2022-11-20T14:09:06.473Z,13.79
2022-11-20T14:11:33.175Z,13.79
2022-11-20T14:14:16.456Z,13.64
2022-11-20T14:16:45.335Z,13.82
2022-11-20T14:19:17.801Z,13.95
2022-11-20T14:21:44.459Z,13.83
2022-11-20T14:24:13.425Z,13.67
2022-11-20T14:26:47.025Z,13.77
2022-11-20T14:29:19.067Z,13.61
2022-11-20T14:31:52.656Z,13.70
2022-11-20T14:34:25.726Z,13.61
2022-11-20T14:36:58.445Z,13.58
2022-11-20T14:39:43.327Z,13.42
2022-11-20T14:42:28.333Z,13.35
2022-11-20T14:45:00.411Z,13.33
2022-11-20T14:47:30.396Z,13.13
2022-11-20T14:49:59.591Z,12.80
2022-11-20T14:52:28.983Z,12.72
2022-11-20T14:54:57.933Z,12.56
2022-11-20T14:57:29.464Z,12.31
2022-11-20T15:00:11.430Z,12.15
2022-11-20T15:02:46.404Z,11.80
2022-11-20T15:05:14.543Z,11.61
2022-11-20T15:07:46.997Z,11.34
2022-11-20T15:10:19.591Z,11.26
2022-11-20T15:12:58.031Z,11.28
2022-11-20T15:15:31.271Z,11.32
2022-11-20T15:17:59.220Z,10.68
2022-11-20T15:20:29.692Z,10.81
2022-11-20T15:22:56.373Z,10.84
2022-11-20T15:25:25.597Z,10.78
2022-11-20T15:27:57.856Z,10.48
2022-11-20T15:30:25.538Z,10.40
2022-11-20T15:32:52.391Z,10.59
2022-11-20T15:35:19.168Z,10.48
2022-11-20T15:37:45.911Z,10.53
2022-11-20T15:40:13.458Z,10.68
2022-11-20T15:43:00.159Z,10.64
2022-11-20T15:45:29.222Z,10.51
2022-11-20T15:47:56.022Z,10.32
2022-11-20T15:50:26.965Z,10.27
2022-11-20T15:52:53.630Z,10.12
2022-11-20T15:55:20.302Z,9.89
2022-11-20T15:57:47.014Z,9.82
2022-11-20T16:00:16.180Z,9.66
2022-11-20T16:02:44.833Z,9.51
2022-11-20T16:05:13.327Z,9.62
2022-11-20T16:07:40.081Z,9.74
2022-11-20T16:10:07.302Z,9.86
2022-11-20T16:12:52.632Z,10.03
2022-11-20T16:15:37.996Z,10.19
2022-11-20T16:18:04.826Z,9.87
2022-11-20T16:20:31.530Z,9.73
2022-11-20T16:22:58.182Z,9.77
2022-11-20T16:25:24.835Z,9.86
2022-11-20T16:27:51.596Z,9.87
2022-11-20T16:30:18.456Z,9.82
2022-11-20T16:32:45.358Z,9.51
2022-11-20T16:35:12.355Z,9.45
2022-11-20T16:37:39.730Z,9.48
2022-11-20T16:40:07.406Z,9.31
2022-11-20T16:42:35.486Z,9.39
2022-11-20T16:45:02.221Z,9.54
2022-11-20T16:47:28.926Z,9.53
2022-11-20T16:49:56.087Z,9.42
2022-11-20T16:52:22.737Z,9.51
2022-11-20T16:54:49.667Z,9.58
2022-11-20T16:57:16.361Z,9.73
2022-11-20T16:59:43.375Z,9.52
2022-11-20T17:02:10.692Z,9.54
2022-11-20T17:04:37.715Z,9.50
2022-11-20T17:07:08.020Z,9.52
2022-11-20T17:09:34.956Z,9.80
2022-11-20T17:12:01.783Z,9.64
2022-11-20T17:14:28.550Z,9.67
2022-11-20T17:16:55.605Z,9.74
2022-11-20T17:19:22.344Z,9.78
2022-11-20T17:21:49.760Z,9.58
2022-11-20T17:24:16.563Z,9.57
2022-11-20T17:26:44.727Z,9.61
2022-11-20T17:29:14.150Z,9.62
2022-11-20T17:31:41.654Z,9.85
2022-11-20T17:34:11.474Z,9.67
2022-11-20T17:36:44.827Z,9.54
2022-11-20T17:39:16.495Z,9.71
2022-11-20T17:41:44.197Z,9.35
2022-11-20T17:44:11.934Z,9.10
2022-11-20T17:46:38.558Z,9.32
2022-11-20T17:49:05.343Z,9.39
2022-11-20T17:51:35.001Z,9.29
2022-11-20T17:54:05.192Z,9.11
2022-11-20T17:56:52.508Z,9.08
2022-11-20T17:59:19.395Z,9.13
2022-11-20T18:01:46.509Z,9.32
2022-11-20T18:04:13.394Z,9.17
2022-11-20T18:06:40.866Z,9.00
2022-11-20T18:09:07.947Z,9.22
2022-11-20T18:11:37.103Z,9.01
2022-11-20T18:14:25.912Z,9.22
2022-11-20T18:16:55.601Z,9.43
2022-11-20T18:19:27.609Z,9.48
2022-11-20T18:21:56.879Z,9.53
2022-11-20T18:24:23.764Z,9.15
2022-11-20T18:26:50.580Z,9.36
2022-11-20T18:29:17.661Z,9.28
2022-11-20T18:31:44.405Z,9.56
2022-11-20T18:34:14.131Z,9.54
2022-11-20T18:36:42.647Z,9.39
2022-11-20T18:39:12.200Z,9.44
2022-11-20T18:41:58.008Z,9.36
2022-11-20T18:44:46.528Z,9.08
2022-11-20T18:47:16.084Z,9.30
2022-11-20T18:49:46.328Z,9.41
2022-11-20T18:52:13.717Z,9.36
2022-11-20T18:54:40.493Z,9.51
2022-11-20T18:57:07.847Z,9.49
2022-11-20T18:59:34.524Z,9.38
2022-11-20T19:02:01.351Z,9.42
2022-11-20T19:04:29.654Z,9.43
2022-11-20T19:06:56.425Z,9.51
2022-11-20T19:09:24.345Z,9.58
2022-11-20T19:11:52.193Z,9.42
2022-11-20T19:14:19.191Z,9.40
2022-11-20T19:16:46.355Z,9.12
2022-11-20T19:19:12.963Z,9.35
2022-11-20T19:21:39.725Z,8.91
2022-11-20T19:24:06.520Z,9.31
2022-11-20T19:26:36.137Z,9.28
2022-11-20T19:29:04.471Z,9.40
2022-11-20T19:31:31.494Z,9.21
2022-11-20T19:34:00.888Z,9.37
2022-11-20T19:36:33.237Z,9.43
2022-11-20T19:39:00.858Z,9.53
2022-11-20T19:41:30.448Z,9.58
2022-11-20T19:44:08.449Z,9.56
2022-11-20T19:46:36.516Z,9.52
2022-11-20T19:49:04.339Z,9.69
2022-11-20T19:51:34.212Z,9.55
2022-11-20T19:54:01.869Z,9.81
2022-11-20T19:56:30.354Z,9.80
2022-11-20T19:58:57.692Z,9.79
2022-11-20T20:01:30.122Z,9.71
2022-11-20T20:04:02.495Z,9.36
2022-11-20T20:06:29.817Z,9.73
2022-11-20T20:09:05.896Z,9.46
2022-11-20T20:11:34.346Z,9.32
2022-11-20T20:14:06.815Z,9.51
2022-11-20T20:16:34.402Z,9.41
2022-11-20T20:19:03.256Z,9.13
2022-11-20T20:21:31.810Z,9.48
2022-11-20T20:23:59.140Z,9.42
2022-11-20T20:26:28.599Z,9.48
2022-11-20T20:28:55.740Z,9.37
2022-11-20T20:31:25.062Z,9.63
2022-11-20T20:33:52.033Z,9.53
2022-11-20T20:36:21.866Z,9.33
2022-11-20T20:38:55.925Z,9.74
2022-11-20T20:41:25.114Z,9.66
2022-11-20T20:44:11.381Z,9.75
2022-11-20T20:46:39.597Z,9.90
2022-11-20T20:49:07.453Z,10.03
2022-11-20T20:51:35.049Z,10.04
2022-11-20T20:54:01.910Z,9.66
2022-11-20T20:56:28.653Z,9.73
2022-11-20T20:58:55.287Z,9.61
2022-11-20T21:01:23.131Z,9.77
2022-11-20T21:03:50.110Z,9.88
2022-11-20T21:06:17.010Z,10.02
2022-11-20T21:08:44.580Z,10.04
2022-11-20T21:11:14.265Z,10.11
2022-11-20T21:13:43.000Z,10.10
2022-11-20T21:16:10.846Z,10.21
2022-11-20T21:18:37.885Z,10.38
2022-11-20T21:21:44.801Z,10.54
2022-11-20T21:24:11.450Z,10.70
2022-11-20T21:26:38.470Z,10.77
2022-11-20T21:29:05.084Z,10.80
2022-11-20T21:31:31.859Z,10.97
2022-11-20T21:33:58.827Z,10.98
2022-11-20T21:36:30.339Z,11.10
2022-11-20T21:38:59.482Z,11.19
2022-11-20T21:41:30.335Z,11.14
2022-11-20T21:46:46.388Z,11.12
2022-11-20T21:49:14.643Z,11.14
2022-11-20T21:51:41.831Z,11.19
2022-11-20T21:54:10.762Z,11.22
2022-11-20T21:56:37.437Z,11.22
2022-11-20T21:59:04.041Z,11.36
2022-11-20T22:01:31.390Z,11.32
2022-11-20T22:04:02.374Z,11.35
2022-11-20T22:06:33.992Z,11.33
2022-11-20T22:09:01.417Z,11.44
2022-11-20T22:11:28.494Z,11.41
2022-11-20T22:14:13.667Z,11.48
2022-11-20T22:16:40.458Z,11.65
2022-11-20T22:19:07.148Z,11.55
2022-11-20T22:21:35.248Z,11.60
2022-11-20T22:24:02.116Z,11.49
2022-11-20T22:26:33.905Z,11.47
2022-11-20T22:29:04.451Z,11.22
2022-11-20T22:31:31.874Z,11.22
2022-11-20T22:34:01.135Z,11.17
2022-11-20T22:36:29.661Z,11.22
2022-11-20T22:38:56.880Z,11.07
2022-11-20T22:41:27.243Z,11.26
2022-11-20T22:43:56.728Z,11.33
2022-11-20T22:46:25.011Z,11.36
2022-11-20T22:48:57.052Z,11.35
2022-11-20T22:51:35.327Z,11.33
2022-11-20T22:54:03.623Z,11.33
2022-11-20T22:56:31.148Z,11.44
2022-11-20T22:58:58.236Z,11.37
2022-11-20T23:01:33.466Z,11.16
2022-11-20T23:04:03.349Z,11.34
2022-11-20T23:06:30.839Z,11.46
2022-11-20T23:08:57.519Z,11.44
2022-11-20T23:11:27.427Z,11.43
2022-11-20T23:13:57.613Z,11.26
2022-11-20T23:16:26.208Z,11.24
2022-11-20T23:18:58.680Z,11.27
2022-11-20T23:21:26.178Z,11.25
2022-11-20T23:23:55.742Z,11.18
2022-11-20T23:26:25.061Z,11.29
2022-11-20T23:28:54.139Z,11.38
2022-11-20T23:31:21.270Z,11.11
2022-11-20T23:33:47.919Z,11.32
2022-11-20T23:36:15.197Z,11.25
2022-11-20T23:38:42.433Z,11.28
2022-11-20T23:41:09.247Z,11.36
2022-11-20T23:43:36.019Z,11.33
2022-11-20T23:46:03.984Z,11.36
2022-11-20T23:48:33.819Z,11.43
2022-11-20T23:51:00.933Z,11.42
2022-11-20T23:53:30.154Z,11.57
2022-11-20T23:55:59.497Z,11.59
2022-11-20T23:58:33.991Z,11.68
